CheckWX is a tool to help pilots better visualize weather data.  It is not intended as a substitute for an official pre-flight weather briefing.

23:09:36 UTC

KSAN TAF
San Diego International Airport
San Diego, California, USA
KSAN 251737Z 2518/2624 29009KT P6SM SCT012 SCT250 FM260100 VRB05KT P6SM FEW010 FM260400 VRB04KT 6SM BR OVC007 FM261700 29009KT 6SM HZ SCT010

May-25@
18:00 UTC

May-25 @ 18:00 UTC

May-26@
01:00 UTC

May-26 @ 01:00 UTC

TAF KSAN 251737Z 2518/2624 29009KT P6SM SCT012 SCT250

Expired

Wind
  • 290° at 9 KTS
Cloud Levels
  • Scattered at 1,200' AGL
  • Scattered at 25,000' AGL

May-26@
01:00 UTC

May-26 @ 01:00 UTC

May-26@
04:00 UTC

May-26 @ 04:00 UTC

FM260100 VRB05KT P6SM FEW010

Expired

Wind
  • Variable at 5 KTS
Cloud Levels
  • Few at 1,000' AGL

May-26@
04:00 UTC

May-26 @ 04:00 UTC

May-26@
17:00 UTC

May-26 @ 17:00 UTC

FM260400 VRB04KT 6SM BR OVC007

Expired

Wind
  • Variable at 4 KTS
Conditions
Mist
Cloud Levels
  • Overcast at 700' AGL

May-26@
17:00 UTC

May-26 @ 17:00 UTC

May-27@
00:00 UTC

May-27 @ 00:00 UTC

FM261700 29009KT 6SM HZ SCT010

From

From Standard forecast or significant change

Wind
  • 290° at 9 KTS
Conditions
Haze
Cloud Levels
  • Scattered at 1,000' AGL